Time;durP1;ratioP1;P1;durP2;ratioP2;P2;SDS_P1;SDS_P2;PMS_P1;PMS_P2;Temp;Humidity;BMP_temperature;BMP_pressure;BME280_temperature;BME280_humidity;BME280_pressure;Samples;Min_cycle;Max_cycle;Signal;HPM_P1;HPM_P2
2023/08/19 00:01:04;;;;;;;13.68;11.07;;;24.20;71.60;;;;;;5096215;28;20024;-70
2023/08/19 00:03:35;;;;;;;12.68;10.20;;;24.20;71.70;;;;;;5096145;28;20040;-70
2023/08/19 00:06:08;;;;;;;12.35;10.70;;;24.10;71.80;;;;;;5095848;28;20055;-70
2023/08/19 00:08:37;;;;;;;12.23;10.55;;;24.10;71.80;;;;;;5096432;28;20129;-70
2023/08/19 00:11:04;;;;;;;13.32;10.48;;;24.00;71.90;;;;;;5095809;28;20116;-70
2023/08/19 00:13:33;;;;;;;12.85;11.13;;;24.10;72.00;;;;;;5095598;28;20036;-70
2023/08/19 00:15:59;;;;;;;16.25;13.60;;;24.00;72.00;;;;;;5096475;28;20076;-70
2023/08/19 00:18:25;;;;;;;13.82;11.20;;;24.00;72.20;;;;;;5096305;28;20016;-70
2023/08/19 00:20:51;;;;;;;13.80;11.10;;;23.90;72.40;;;;;;5095712;28;20138;-70
2023/08/19 00:23:17;;;;;;;15.48;11.45;;;23.90;72.30;;;;;;5095561;28;20032;-70
2023/08/19 00:25:43;;;;;;;13.98;11.75;;;23.90;72.60;;;;;;5095653;28;20496;-70
2023/08/19 00:28:09;;;;;;;14.80;11.85;;;23.90;72.60;;;;;;5095260;28;20154;-70
2023/08/19 00:30:35;;;;;;;14.35;11.07;;;23.90;72.70;;;;;;5094851;28;20472;-70
2023/08/19 00:33:01;;;;;;;17.58;12.13;;;23.90;72.70;;;;;;5095545;28;20093;-70
2023/08/19 00:35:28;;;;;;;15.32;12.63;;;23.90;72.70;;;;;;5095501;28;20083;-70
2023/08/19 00:37:55;;;;;;;17.05;13.43;;;23.90;72.80;;;;;;5095420;28;20077;-70
2023/08/19 00:40:21;;;;;;;15.30;12.32;;;23.80;73.00;;;;;;5095699;28;20095;-70
2023/08/19 00:42:48;;;;;;;14.35;11.88;;;23.80;73.10;;;;;;5094371;28;20020;-70
2023/08/19 00:45:14;;;;;;;16.35;12.10;;;23.80;73.20;;;;;;5095962;28;20044;-70
2023/08/19 00:47:41;;;;;;;13.68;11.45;;;23.70;73.30;;;;;;5095155;28;20043;-70
2023/08/19 00:50:10;;;;;;;13.80;11.32;;;23.70;73.40;;;;;;5095645;28;20032;-70
2023/08/19 00:52:37;;;;;;;13.52;11.35;;;23.60;73.50;;;;;;5095161;28;20452;-70
2023/08/19 00:55:05;;;;;;;16.83;11.95;;;23.60;73.60;;;;;;5095842;28;20028;-70
2023/08/19 00:57:34;;;;;;;14.27;11.23;;;23.60;73.70;;;;;;5094660;28;20074;-70
2023/08/19 01:00:00;;;;;;;14.38;11.80;;;23.60;73.70;;;;;;5095275;28;20059;-70
2023/08/19 01:02:27;;;;;;;18.10;13.07;;;23.60;73.80;;;;;;5095483;28;20047;-70
2023/08/19 01:04:53;;;;;;;14.55;12.95;;;23.60;73.60;;;;;;5095492;28;20103;-70
2023/08/19 01:07:53;;;;;;;14.93;12.70;;;23.50;73.80;;;;;;5095165;28;20020;-70
2023/08/19 01:10:37;;;;;;;16.73;12.45;;;23.50;74.20;;;;;;5095474;28;20024;-70
2023/08/19 01:13:15;;;;;;;14.48;11.38;;;23.50;74.40;;;;;;5095270;28;20062;-70
2023/08/19 01:16:04;;;;;;;14.02;11.65;;;23.40;73.90;;;;;;5095704;28;20025;-70
2023/08/19 01:18:30;;;;;;;15.35;11.52;;;23.40;74.00;;;;;;5079986;28;20070;-70
2023/08/19 01:20:57;;;;;;;18.30;14.35;;;23.40;74.10;;;;;;5095593;28;20335;-70
2023/08/19 01:23:35;;;;;;;16.33;12.77;;;23.40;74.50;;;;;;5095511;28;20056;-70
2023/08/19 01:26:04;;;;;;;21.17;17.02;;;23.40;74.40;;;;;;5095437;28;20077;-70
2023/08/19 01:28:30;;;;;;;18.83;14.10;;;23.30;74.50;;;;;;5095020;28;20081;-70
2023/08/19 01:30:58;;;;;;;16.50;13.20;;;23.30;74.60;;;;;;5093973;28;20035;-70
2023/08/19 01:33:27;;;;;;;19.65;14.32;;;23.40;74.60;;;;;;5094681;28;20357;-70
2023/08/19 01:36:03;;;;;;;17.70;14.05;;;23.30;74.50;;;;;;5095456;28;20028;-70
2023/08/19 01:38:35;;;;;;;16.35;12.85;;;23.40;74.60;;;;;;5095169;28;20024;-70
2023/08/19 01:41:03;;;;;;;17.77;14.75;;;23.30;74.50;;;;;;5095438;28;20028;-70
2023/08/19 01:43:33;;;;;;;16.48;12.43;;;23.30;74.40;;;;;;5098200;28;20023;-70
2023/08/19 01:46:01;;;;;;;15.77;12.85;;;23.30;74.50;;;;;;5098495;28;20028;-70
2023/08/19 01:48:27;;;;;;;16.60;13.48;;;23.20;74.50;;;;;;5098532;28;20077;-70
2023/08/19 01:50:53;;;;;;;18.27;14.27;;;23.20;74.70;;;;;;5098713;28;20028;-70
2023/08/19 01:53:19;;;;;;;17.00;13.30;;;23.20;74.70;;;;;;5098307;28;20081;-70
2023/08/19 01:55:45;;;;;;;16.55;13.00;;;23.20;74.70;;;;;;5098937;28;20433;-70
2023/08/19 01:58:11;;;;;;;17.23;12.80;;;23.20;74.80;;;;;;5098377;28;20024;-70
2023/08/19 02:00:37;;;;;;;16.77;14.50;;;23.10;74.90;;;;;;5098296;28;20103;-70
2023/08/19 02:03:07;;;;;;;16.80;13.13;;;23.10;74.80;;;;;;5098197;28;20485;-70
2023/08/19 02:05:33;;;;;;;15.55;13.10;;;23.10;74.80;;;;;;5098126;28;20435;-70
2023/08/19 02:07:58;;;;;;;16.40;12.40;;;23.10;75.00;;;;;;5098159;28;20047;-70
2023/08/19 02:10:24;;;;;;;16.52;12.57;;;23.10;74.90;;;;;;5098340;28;20452;-70
2023/08/19 02:12:50;;;;;;;18.98;12.90;;;23.10;74.80;;;;;;5097932;28;20456;-70
2023/08/19 02:15:17;;;;;;;15.98;12.50;;;23.10;74.90;;;;;;5097999;28;20031;-70
2023/08/19 02:17:43;;;;;;;15.70;13.25;;;23.10;74.90;;;;;;5097910;28;20092;-70
2023/08/19 02:20:10;;;;;;;19.15;14.45;;;23.00;74.90;;;;;;5097941;28;20106;-70
2023/08/19 02:22:38;;;;;;;18.38;14.75;;;23.00;75.00;;;;;;5097827;28;20020;-70
2023/08/19 02:25:07;;;;;;;17.25;13.05;;;22.90;75.10;;;;;;5098039;28;20157;-70
2023/08/19 02:27:38;;;;;;;17.25;13.50;;;22.90;75.10;;;;;;5097740;28;20024;-70
2023/08/19 02:30:05;;;;;;;20.13;13.98;;;22.90;75.10;;;;;;5097668;28;20121;-70
2023/08/19 02:32:30;;;;;;;17.00;13.35;;;22.90;75.20;;;;;;5097775;28;20149;-70
2023/08/19 02:35:01;;;;;;;16.55;13.00;;;22.90;75.40;;;;;;5097627;28;20091;-70
2023/08/19 02:37:27;;;;;;;16.85;13.20;;;22.80;75.50;;;;;;5097509;28;20028;-70
2023/08/19 02:39:53;;;;;;;16.92;12.93;;;22.80;75.60;;;;;;5098077;28;20028;-70
2023/08/19 02:42:18;;;;;;;16.65;14.15;;;22.80;75.70;;;;;;5097712;28;20436;-70
2023/08/19 02:44:44;;;;;;;17.88;13.30;;;22.70;75.80;;;;;;5097476;28;20034;-70
2023/08/19 02:47:10;;;;;;;18.00;13.68;;;22.70;75.70;;;;;;5097611;28;20020;-70
2023/08/19 02:49:36;;;;;;;17.10;13.52;;;22.70;75.70;;;;;;5097650;28;20036;-70
2023/08/19 02:52:03;;;;;;;20.05;15.77;;;22.60;75.70;;;;;;5097399;28;20111;-70
2023/08/19 02:54:29;;;;;;;17.13;13.25;;;22.60;75.70;;;;;;5096569;28;20091;-70
2023/08/19 02:56:55;;;;;;;20.77;16.80;;;22.60;75.80;;;;;;5097469;28;20063;-70
2023/08/19 02:59:21;;;;;;;18.67;14.18;;;22.60;75.90;;;;;;5097672;28;20334;-70
2023/08/19 03:01:47;;;;;;;20.05;15.75;;;22.60;75.80;;;;;;5097044;28;20445;-70
2023/08/19 03:04:13;;;;;;;23.25;16.58;;;22.50;75.80;;;;;;5097262;28;20038;-70
2023/08/19 03:06:39;;;;;;;15.85;12.93;;;22.40;76.20;;;;;;5096985;28;20024;-70
2023/08/19 03:09:05;;;;;;;19.92;15.07;;;22.40;76.10;;;;;;5097259;28;20062;-70
2023/08/19 03:11:31;;;;;;;16.02;12.85;;;22.40;76.20;;;;;;5096679;28;20031;-70
2023/08/19 03:13:56;;;;;;;14.25;12.07;;;22.40;76.30;;;;;;5096904;28;20016;-70
2023/08/19 03:16:22;;;;;;;16.92;13.48;;;22.30;76.40;;;;;;5097105;28;20027;-70
2023/08/19 03:18:48;;;;;;;16.35;12.73;;;22.30;76.50;;;;;;5095701;28;20026;-70
2023/08/19 03:21:14;;;;;;;17.85;13.95;;;22.30;76.40;;;;;;5097002;28;20069;-70
2023/08/19 03:23:40;;;;;;;16.23;14.27;;;22.30;76.60;;;;;;5097191;28;20023;-70
2023/08/19 03:26:06;;;;;;;15.88;12.85;;;22.40;76.60;;;;;;5097113;28;20023;-70
2023/08/19 03:28:32;;;;;;;16.55;12.50;;;22.40;76.70;;;;;;5096821;28;20024;-70
2023/08/19 03:30:58;;;;;;;19.35;13.98;;;22.40;76.50;;;;;;5097098;28;20039;-70
2023/08/19 03:33:24;;;;;;;18.13;13.48;;;22.40;76.30;;;;;;5096599;28;20042;-70
2023/08/19 03:35:50;;;;;;;15.25;12.68;;;22.40;76.30;;;;;;5096964;28;20349;-70
2023/08/19 03:38:16;;;;;;;16.67;12.57;;;22.30;76.30;;;;;;5096426;28;20357;-70
2023/08/19 03:40:42;;;;;;;19.10;13.75;;;22.40;76.40;;;;;;5096416;28;20017;-70
2023/08/19 03:43:09;;;;;;;22.25;16.65;;;22.30;76.50;;;;;;5096234;28;20020;-70
2023/08/19 03:45:35;;;;;;;15.60;12.95;;;22.30;76.50;;;;;;5096252;28;20113;-70
2023/08/19 03:48:02;;;;;;;16.90;14.02;;;22.20;76.40;;;;;;5095081;28;20078;-70
2023/08/19 03:50:28;;;;;;;14.88;12.80;;;22.20;76.60;;;;;;5096179;28;20020;-70
2023/08/19 03:52:53;;;;;;;17.40;13.65;;;22.10;76.60;;;;;;5096538;28;20502;-70
2023/08/19 03:55:19;;;;;;;17.88;13.73;;;22.20;76.70;;;;;;5096110;28;20024;-70
2023/08/19 03:57:45;;;;;;;17.73;14.75;;;22.20;76.70;;;;;;5096063;28;20349;-70
2023/08/19 04:00:11;;;;;;;19.50;15.32;;;22.20;76.70;;;;;;5096016;28;20071;-70
2023/08/19 04:02:37;;;;;;;18.15;14.82;;;22.10;76.70;;;;;;5096107;28;20097;-70
2023/08/19 04:05:05;;;;;;;18.38;13.38;;;22.10;76.80;;;;;;5095277;28;20379;-70
2023/08/19 04:07:31;;;;;;;18.98;14.05;;;22.20;76.90;;;;;;5095708;28;20069;-70
2023/08/19 04:09:59;;;;;;;18.63;14.13;;;22.20;76.80;;;;;;5096377;28;20118;-70
2023/08/19 04:12:26;;;;;;;16.13;12.90;;;22.20;76.80;;;;;;5096225;28;20067;-70
2023/08/19 04:14:53;;;;;;;15.95;13.15;;;22.20;76.80;;;;;;5095729;28;20016;-70
2023/08/19 04:17:19;;;;;;;16.30;12.70;;;22.20;76.70;;;;;;5095991;28;20054;-70
2023/08/19 04:19:47;;;;;;;15.05;12.00;;;22.20;76.70;;;;;;5095712;28;20028;-70
2023/08/19 04:22:15;;;;;;;16.20;12.18;;;22.30;76.70;;;;;;5095486;28;20519;-70
2023/08/19 04:24:41;;;;;;;18.02;14.90;;;22.30;76.70;;;;;;5095913;28;20028;-70
2023/08/19 04:27:07;;;;;;;17.98;13.18;;;22.30;76.60;;;;;;5096119;28;20099;-70
2023/08/19 04:29:33;;;;;;;18.55;13.60;;;22.30;76.60;;;;;;5094541;28;20409;-70
2023/08/19 04:32:03;;;;;;;17.02;14.05;;;22.30;76.60;;;;;;5095358;28;20024;-70
2023/08/19 04:34:29;;;;;;;22.52;16.85;;;22.40;76.50;;;;;;5095518;28;20029;-70
2023/08/19 04:36:56;;;;;;;15.50;13.15;;;22.40;76.50;;;;;;5096019;28;20020;-70
2023/08/19 04:39:22;;;;;;;18.27;14.30;;;22.40;76.40;;;;;;5095445;28;20024;-70
2023/08/19 04:41:49;;;;;;;18.52;14.27;;;22.30;76.40;;;;;;5095382;28;20012;-70
2023/08/19 04:44:16;;;;;;;18.33;13.82;;;22.30;76.40;;;;;;5095396;28;20073;-70
2023/08/19 04:46:43;;;;;;;17.02;14.02;;;22.40;76.40;;;;;;5095939;28;20472;-70
2023/08/19 04:49:09;;;;;;;18.15;14.00;;;22.40;76.50;;;;;;5095250;28;20044;-70
2023/08/19 04:51:35;;;;;;;15.50;12.07;;;22.40;76.40;;;;;;5095736;28;20020;-70
2023/08/19 04:54:03;;;;;;;17.58;13.35;;;22.50;76.20;;;;;;5095635;28;20024;-70
2023/08/19 04:56:30;;;;;;;19.40;14.38;;;22.60;76.00;;;;;;5095569;28;20095;-70
2023/08/19 04:59:00;;;;;;;16.77;13.48;;;22.70;75.90;;;;;;5095252;28;20043;-70
2023/08/19 05:01:27;;;;;;;17.77;14.20;;;22.70;75.70;;;;;;5095430;28;20077;-70
2023/08/19 05:03:53;;;;;;;17.30;13.80;;;22.80;75.90;;;;;;5094658;28;20081;-70
2023/08/19 05:06:20;;;;;;;18.83;13.80;;;22.90;75.80;;;;;;5095188;28;20127;-70
2023/08/19 05:08:46;;;;;;;18.95;15.07;;;23.10;75.60;;;;;;5095460;28;20028;-70
2023/08/19 05:11:13;;;;;;;18.52;14.80;;;23.80;75.40;;;;;;5095458;28;20027;-70
2023/08/19 05:13:39;;;;;;;20.30;15.02;;;24.80;73.80;;;;;;5094938;28;20115;-70
2023/08/19 05:16:05;;;;;;;19.98;16.90;;;25.90;71.50;;;;;;5095072;28;20358;-70
2023/08/19 05:18:31;;;;;;;19.00;14.48;;;27.00;68.80;;;;;;5097842;28;20467;-70
2023/08/19 05:20:57;;;;;;;21.15;15.88;;;28.10;67.00;;;;;;5099590;28;20012;-70
2023/08/19 05:23:23;;;;;;;22.38;17.73;;;29.00;64.10;;;;;;5099254;28;20114;-70
2023/08/19 05:25:49;;;;;;;18.67;15.50;;;29.90;61.40;;;;;;5099266;28;20104;-70
2023/08/19 05:28:15;;;;;;;20.83;16.50;;;30.60;60.20;;;;;;5099198;28;20032;-70
2023/08/19 05:30:41;;;;;;;19.27;15.20;;;31.40;58.10;;;;;;5099131;28;20081;-70
2023/08/19 05:33:07;;;;;;;18.23;14.70;;;32.20;56.60;;;;;;5098973;28;20441;-70
2023/08/19 05:35:33;;;;;;;18.98;15.48;;;32.90;54.80;;;;;;5099337;28;20365;-70
2023/08/19 05:37:59;;;;;;;15.70;13.70;;;33.70;53.00;;;;;;5098748;28;20031;-70
2023/08/19 05:40:25;;;;;;;15.82;13.48;;;34.50;52.00;;;;;;5099023;28;20016;-70
2023/08/19 05:42:51;;;;;;;16.52;13.10;;;35.30;50.80;;;;;;5098731;28;20069;-70
2023/08/19 05:45:17;;;;;;;16.05;12.60;;;36.00;48.80;;;;;;5099162;28;20047;-70
2023/08/19 05:47:43;;;;;;;14.70;12.65;;;36.80;47.80;;;;;;5098343;28;20411;-70
2023/08/19 05:50:09;;;;;;;16.15;13.45;;;37.50;46.50;;;;;;5099117;28;20027;-70
2023/08/19 05:52:35;;;;;;;15.18;12.30;;;38.30;45.40;;;;;;5098316;28;20028;-70
2023/08/19 05:55:01;;;;;;;16.40;12.52;;;38.90;44.50;;;;;;5098709;28;20087;-70
2023/08/19 05:57:27;;;;;;;18.92;14.07;;;39.60;43.30;;;;;;5098372;28;20020;-70
2023/08/19 05:59:53;;;;;;;17.38;13.82;;;40.30;42.30;;;;;;5098617;28;20054;-70
2023/08/19 06:02:19;;;;;;;23.60;16.30;;;40.90;41.20;;;;;;5098255;28;20024;-70
2023/08/19 06:04:45;;;;;;;21.35;15.73;;;41.50;40.30;;;;;;5098221;28;20330;-70
2023/08/19 06:07:11;;;;;;;18.63;13.57;;;42.10;39.20;;;;;;5098195;28;20024;-70
2023/08/19 06:09:37;;;;;;;17.65;13.63;;;42.70;38.50;;;;;;5098638;28;20024;-70
2023/08/19 06:12:03;;;;;;;15.00;12.77;;;43.20;37.50;;;;;;5097969;28;20019;-70
2023/08/19 06:14:29;;;;;;;14.13;12.52;;;43.60;37.00;;;;;;5098570;28;20028;-71
2023/08/19 06:16:55;;;;;;;12.90;10.98;;;44.00;36.30;;;;;;5098559;28;20032;-71
2023/08/19 06:19:21;;;;;;;14.77;10.82;;;44.50;36.00;;;;;;5098456;28;20055;-71
2023/08/19 06:21:47;;;;;;;14.13;10.40;;;44.90;35.30;;;;;;5097382;28;20057;-71
2023/08/19 06:24:13;;;;;;;11.52;10.32;;;45.40;34.80;;;;;;5098120;28;20081;-71
2023/08/19 06:26:39;;;;;;;12.30;10.05;;;45.90;34.00;;;;;;5098325;28;20020;-71
2023/08/19 06:29:05;;;;;;;12.13;10.13;;;46.40;33.60;;;;;;5097218;28;20024;-71
2023/08/19 06:31:31;;;;;;;11.38;9.80;;;46.90;33.00;;;;;;5097607;28;20024;-71
2023/08/19 06:33:57;;;;;;;13.07;10.20;;;47.20;32.40;;;;;;5097580;28;20421;-71
2023/08/19 06:36:26;;;;;;;11.18;9.10;;;47.60;31.80;;;;;;5097657;28;20089;-71
2023/08/19 06:39:03;;;;;;;11.15;9.75;;;47.90;31.30;;;;;;5097558;28;20412;-71
2023/08/19 06:41:33;;;;;;;9.65;8.68;;;48.30;30.20;;;;;;5096609;28;20036;-71
2023/08/19 06:44:01;;;;;;;10.23;8.80;;;48.70;30.40;;;;;;5097438;28;20035;-71
2023/08/19 06:46:29;;;;;;;9.40;8.32;;;48.90;30.30;;;;;;5097326;28;20020;-71
2023/08/19 06:48:56;;;;;;;11.85;8.63;;;49.20;30.20;;;;;;5097282;28;20571;-71
2023/08/19 06:51:22;;;;;;;9.90;8.90;;;49.40;29.90;;;;;;5097242;28;20047;-71
2023/08/19 06:53:48;;;;;;;9.98;8.98;;;49.60;29.30;;;;;;5096198;28;20085;-71
2023/08/19 06:56:33;;;;;;;11.13;9.15;;;49.70;29.10;;;;;;5097173;28;20028;-71
2023/08/19 06:59:06;;;;;;;10.10;8.25;;;49.60;26.10;;;;;;5097489;28;20098;-71
2023/08/19 07:01:35;;;;;;;9.38;8.20;;;49.60;28.90;;;;;;5097364;28;20020;-71
2023/08/19 07:04:03;;;;;;;10.43;8.73;;;49.60;28.80;;;;;;5097282;28;20032;-71
2023/08/19 07:06:31;;;;;;;10.13;9.00;;;49.60;28.50;;;;;;5096914;28;20095;-71
2023/08/19 07:09:00;;;;;;;11.70;8.90;;;49.60;28.60;;;;;;5097219;28;20165;-71
2023/08/19 07:11:27;;;;;;;10.60;8.32;;;49.60;28.60;;;;;;5097356;28;20016;-71
2023/08/19 07:13:53;;;;;;;10.98;8.05;;;49.60;28.50;;;;;;5097075;28;20028;-71
2023/08/19 07:16:22;;;;;;;10.15;9.05;;;49.70;27.90;;;;;;5096839;28;20038;-71
2023/08/19 07:18:53;;;;;;;9.80;8.02;;;49.40;27.60;;;;;;5095921;28;20150;-71
2023/08/19 07:21:23;;;;;;;9.77;8.40;;;48.50;28.10;;;;;;5096927;28;20024;-71
2023/08/19 07:23:53;;;;;;;10.27;8.20;;;47.10;29.30;;;;;;5096642;28;20426;-71
2023/08/19 07:26:21;;;;;;;10.23;8.05;;;45.50;30.70;;;;;;5097168;28;20035;-71
2023/08/19 07:28:47;;;;;;;10.15;8.52;;;44.00;32.10;;;;;;5095652;28;20067;-71
2023/08/19 07:31:14;;;;;;;9.43;8.15;;;42.60;33.50;;;;;;5097094;28;20038;-71
2023/08/19 07:33:41;;;;;;;9.52;8.35;;;41.70;34.60;;;;;;5095499;28;20111;-71
2023/08/19 07:36:07;;;;;;;10.50;8.98;;;40.90;35.70;;;;;;5096628;28;20094;-71
2023/08/19 07:38:33;;;;;;;10.45;8.43;;;40.20;36.70;;;;;;5096698;28;20020;-71
2023/08/19 07:40:59;;;;;;;13.73;8.90;;;39.60;37.40;;;;;;5096191;28;20449;-71
2023/08/19 07:43:25;;;;;;;9.30;8.30;;;39.10;37.90;;;;;;5096208;28;20066;-71
2023/08/19 07:45:51;;;;;;;14.90;10.77;;;38.70;38.40;;;;;;5096568;28;20028;-71
2023/08/19 07:48:17;;;;;;;11.73;9.82;;;38.40;38.90;;;;;;5096128;28;20056;-70
2023/08/19 07:50:43;;;;;;;13.15;10.13;;;38.00;39.30;;;;;;5096209;28;20090;-70
2023/08/19 07:53:09;;;;;;;10.98;9.13;;;37.70;39.40;;;;;;5096530;28;20028;-70
2023/08/19 07:55:35;;;;;;;11.65;9.25;;;37.30;40.10;;;;;;5095138;28;20020;-71
2023/08/19 07:58:01;;;;;;;12.38;9.60;;;37.10;40.20;;;;;;5096360;28;20041;-70
2023/08/19 08:00:27;;;;;;;10.75;8.90;;;36.90;40.30;;;;;;5096300;28;20017;-71
2023/08/19 08:02:53;;;;;;;11.68;9.30;;;36.80;40.10;;;;;;5096051;28;20086;-70
2023/08/19 08:05:26;;;;;;;11.80;9.80;;;36.70;40.10;;;;;;5096464;28;20020;-71
2023/08/19 08:07:52;;;;;;;11.20;9.18;;;36.60;40.20;;;;;;5096187;28;20051;-70
2023/08/19 08:10:18;;;;;;;12.10;9.80;;;36.50;40.60;;;;;;5096407;28;20055;-71
2023/08/19 08:12:44;;;;;;;10.23;8.60;;;36.40;40.80;;;;;;5096255;28;20106;-70
2023/08/19 08:15:12;;;;;;;12.18;9.90;;;36.30;41.30;;;;;;5095805;28;20467;-70
2023/08/19 08:17:38;;;;;;;11.27;9.57;;;36.30;41.60;;;;;;5095692;28;20028;-71
2023/08/19 08:20:05;;;;;;;12.82;9.05;;;36.30;41.60;;;;;;5096218;28;20023;-71
2023/08/19 08:22:32;;;;;;;11.40;8.93;;;36.30;41.70;;;;;;5096159;28;20020;-71
2023/08/19 08:24:58;;;;;;;11.02;9.13;;;36.30;41.90;;;;;;5095897;28;20040;-71
2023/08/19 08:27:25;;;;;;;11.43;8.88;;;36.20;41.80;;;;;;5095623;28;20028;-71
2023/08/19 08:29:51;;;;;;;11.25;7.97;;;36.30;41.90;;;;;;5095504;28;20053;-71
2023/08/19 08:32:17;;;;;;;10.30;8.25;;;36.10;42.10;;;;;;5095428;28;20024;-71
2023/08/19 08:34:43;;;;;;;11.40;9.10;;;36.10;42.20;;;;;;5095565;28;20065;-70
2023/08/19 08:37:15;;;;;;;11.35;8.70;;;36.20;41.70;;;;;;5095777;28;20035;-71
2023/08/19 08:39:41;;;;;;;10.27;9.17;;;36.10;41.50;;;;;;5096039;28;20055;-70
2023/08/19 08:42:08;;;;;;;12.00;9.10;;;36.00;41.90;;;;;;5095522;28;20058;-70
2023/08/19 08:44:37;;;;;;;10.98;9.23;;;35.90;41.80;;;;;;5095349;28;20394;-70
2023/08/19 08:47:04;;;;;;;12.13;10.48;;;35.90;42.00;;;;;;5095409;28;20028;-70
2023/08/19 08:49:30;;;;;;;12.00;9.45;;;35.70;42.20;;;;;;5095201;28;20059;-70
2023/08/19 08:52:00;;;;;;;10.63;8.25;;;35.70;42.50;;;;;;5096559;28;20051;-70
2023/08/19 08:54:29;;;;;;;11.07;8.48;;;35.60;42.90;;;;;;5099532;28;20360;-70
2023/08/19 08:56:55;;;;;;;10.38;8.45;;;35.60;43.10;;;;;;5099489;28;20020;-70
2023/08/19 08:59:22;;;;;;;10.05;8.60;;;35.50;42.90;;;;;;5099755;28;20035;-70
2023/08/19 09:01:48;;;;;;;11.82;9.07;;;35.50;42.70;;;;;;5099333;28;20315;-70
2023/08/19 09:04:17;;;;;;;10.50;9.40;;;35.60;43.00;;;;;;5099428;28;20024;-70
2023/08/19 09:06:45;;;;;;;10.45;8.80;;;35.50;43.30;;;;;;5099850;28;20095;-71
2023/08/19 09:09:13;;;;;;;10.02;8.35;;;35.50;43.40;;;;;;5099198;28;20034;-70
2023/08/19 09:11:42;;;;;;;9.50;8.50;;;35.50;43.50;;;;;;5099152;28;20024;-71
2023/08/19 09:14:37;;;;;;;11.82;9.57;;;35.50;43.60;;;;;;5099175;28;20048;-70
2023/08/19 09:17:03;;;;;;;13.23;9.52;;;35.50;43.70;;;;;;5099722;28;20043;-70
2023/08/19 09:19:29;;;;;;;12.40;9.70;;;35.50;43.50;;;;;;5099579;28;20429;-70
2023/08/19 09:21:55;;;;;;;11.50;10.10;;;35.50;43.40;;;;;;5099328;28;20028;-70
2023/08/19 09:24:21;;;;;;;10.55;9.13;;;35.40;43.60;;;;;;5099132;28;20020;-70
2023/08/19 09:26:56;;;;;;;11.35;9.77;;;35.40;43.90;;;;;;5099284;28;20023;-71
2023/08/19 09:29:25;;;;;;;13.85;10.48;;;35.50;43.70;;;;;;5099287;28;20105;-71
2023/08/19 09:31:57;;;;;;;11.73;10.20;;;35.40;43.70;;;;;;5098972;28;20449;-71
2023/08/19 09:34:23;;;;;;;;;;;35.40;43.50;;;;;;5099210;28;20028;-71
2023/08/19 09:36:56;;;;;;;12.52;9.88;;;35.30;42.70;;;;;;5099085;28;19957;-71
2023/08/19 09:39:25;;;;;;;10.55;9.35;;;35.20;43.50;;;;;;5099343;28;20425;-70
2023/08/19 09:42:14;;;;;;;10.77;9.35;;;35.20;43.80;;;;;;5097610;28;20052;-70
2023/08/19 09:45:06;;;;;;;12.02;9.70;;;35.10;43.60;;;;;;5097606;28;20031;-70
2023/08/19 09:47:46;;;;;;;10.93;9.52;;;35.00;43.30;;;;;;5053184;28;20064;-70
2023/08/19 09:50:13;;;;;;;10.02;9.02;;;35.00;43.20;;;;;;5037342;28;20044;-70
2023/08/19 09:52:40;;;;;;;10.40;7.93;;;34.90;43.00;;;;;;5036698;28;20045;-71
2023/08/19 09:57:33;;;;;;;11.75;8.20;;;34.90;42.80;;;;;;5036698;28;20021;-70
2023/08/19 10:00:00;;;;;;;10.45;7.85;;;34.90;43.00;;;;;;5036665;28;20021;-71
2023/08/19 10:02:33;;;;;;;11.40;8.20;;;35.00;43.20;;;;;;5036264;28;20044;-71
2023/08/19 10:05:03;;;;;;;10.05;8.18;;;35.10;42.90;;;;;;5037007;28;20049;-71
2023/08/19 10:07:33;;;;;;;9.43;7.82;;;35.20;42.40;;;;;;5036249;28;20030;-71
2023/08/19 10:10:04;;;;;;;11.20;8.40;;;35.20;42.80;;;;;;5036542;28;20076;-71
2023/08/19 10:12:38;;;;;;;9.83;8.20;;;35.30;42.60;;;;;;5036144;28;20358;-70
2023/08/19 10:15:07;;;;;;;10.00;9.00;;;35.30;42.40;;;;;;5021086;28;20037;-70
2023/08/19 10:17:36;;;;;;;11.30;9.48;;;35.20;42.60;;;;;;5036707;28;20040;-71
2023/08/19 10:20:11;;;;;;;10.23;9.13;;;35.20;42.70;;;;;;5019445;28;20409;-70
2023/08/19 10:22:42;;;;;;;9.73;8.73;;;35.00;43.30;;;;;;5035935;28;20045;-70
2023/08/19 10:25:10;;;;;;;10.13;8.73;;;34.90;43.40;;;;;;5053151;28;20055;-70
2023/08/19 10:27:36;;;;;;;11.27;9.70;;;34.90;43.60;;;;;;5057587;28;20554;-70
2023/08/19 10:30:23;;;;;;;10.52;9.43;;;34.90;43.70;;;;;;5057834;28;20320;-71
2023/08/19 10:32:49;;;;;;;10.70;9.43;;;34.80;43.80;;;;;;5056785;28;20036;-71
2023/08/19 10:35:16;;;;;;;9.82;8.82;;;34.70;44.10;;;;;;5057424;28;20029;-70
2023/08/19 10:37:45;;;;;;;10.52;8.57;;;34.60;44.40;;;;;;5057911;28;20029;-70
2023/08/19 10:40:21;;;;;;;11.52;8.88;;;34.60;44.50;;;;;;5057347;28;20021;-70
2023/08/19 10:42:59;;;;;;;9.70;8.15;;;34.60;44.80;;;;;;5057520;28;20033;-70
2023/08/19 10:45:35;;;;;;;10.40;8.85;;;34.70;45.10;;;;;;5057720;28;20364;-70
2023/08/19 10:48:02;;;;;;;12.40;9.07;;;34.70;45.00;;;;;;5071617;28;20036;-70
2023/08/19 10:50:37;;;;;;;10.88;8.80;;;34.80;44.80;;;;;;5097400;28;20110;-70
2023/08/19 10:53:09;;;;;;;9.75;8.52;;;34.70;44.90;;;;;;5097472;28;20028;-70
2023/08/19 10:55:56;;;;;;;10.15;8.77;;;34.70;44.90;;;;;;5097842;28;20031;-70
2023/08/19 10:58:26;;;;;;;11.20;10.00;;;34.70;45.10;;;;;;5097773;28;20433;-70
2023/08/19 11:00:52;;;;;;;10.77;9.10;;;34.60;45.00;;;;;;5097204;28;20024;-70
2023/08/19 11:03:19;;;;;;;11.35;9.10;;;34.60;45.10;;;;;;5097148;28;20028;-70
2023/08/19 11:05:49;;;;;;;10.40;9.00;;;34.50;45.00;;;;;;5097626;28;20035;-71
2023/08/19 11:08:16;;;;;;;10.63;9.38;;;34.50;45.10;;;;;;5096988;28;20020;-71
2023/08/19 11:10:48;;;;;;;10.90;9.80;;;34.40;45.20;;;;;;5097216;28;20031;-70
2023/08/19 11:13:17;;;;;;;10.50;8.95;;;34.40;45.30;;;;;;5097423;28;20028;-70
2023/08/19 11:15:49;;;;;;;9.82;8.82;;;34.40;45.50;;;;;;5096345;28;20031;-70
2023/08/19 11:18:21;;;;;;;10.65;9.50;;;34.40;45.70;;;;;;5097123;28;20032;-71
2023/08/19 11:20:47;;;;;;;11.02;8.73;;;34.40;45.50;;;;;;5096851;28;20026;-70
2023/08/19 11:23:28;;;;;;;10.77;9.27;;;34.40;45.50;;;;;;5096675;28;20035;-70
2023/08/19 11:25:55;;;;;;;11.43;9.07;;;34.40;45.20;;;;;;5097315;28;20089;-70
2023/08/19 11:28:27;;;;;;;10.00;9.00;;;34.30;45.50;;;;;;5096942;28;20024;-71
2023/08/19 11:30:54;;;;;;;10.40;9.10;;;34.30;45.80;;;;;;5096893;28;20077;-71
2023/08/19 11:33:21;;;;;;;11.60;9.40;;;34.30;45.90;;;;;;5096643;28;20016;-71
2023/08/19 11:35:48;;;;;;;9.63;8.60;;;34.30;46.20;;;;;;5096574;28;20024;-71
2023/08/19 11:38:16;;;;;;;12.52;8.50;;;34.30;46.30;;;;;;5097051;28;20020;-71
2023/08/19 11:43:08;;;;;;;10.43;9.32;;;34.50;46.50;;;;;;5096664;28;20035;-71
2023/08/19 11:45:38;;;;;;;10.85;9.30;;;34.50;45.90;;;;;;5096264;28;20040;-71
2023/08/19 11:48:06;;;;;;;10.13;9.00;;;34.50;45.90;;;;;;5096092;28;20063;-71
2023/08/19 11:50:34;;;;;;;10.20;8.80;;;34.40;46.20;;;;;;5096237;28;20024;-71
2023/08/19 11:53:04;;;;;;;9.98;8.43;;;34.40;46.20;;;;;;5096035;28;20020;-71
2023/08/19 11:55:36;;;;;;;10.50;9.02;;;34.40;46.20;;;;;;5096390;28;20028;-71
2023/08/19 11:58:04;;;;;;;9.63;8.50;;;34.40;46.40;;;;;;5096473;28;20437;-71
2023/08/19 12:03:01;;;;;;;11.43;8.65;;;34.50;46.80;;;;;;5096270;28;20341;-71
2023/08/19 12:05:27;;;;;;;11.63;9.23;;;34.60;46.60;;;;;;5095972;28;20157;-71
2023/08/19 12:07:53;;;;;;;9.43;8.38;;;34.60;46.40;;;;;;5095995;28;20098;-71
2023/08/19 12:10:19;;;;;;;10.70;8.65;;;34.70;46.40;;;;;;5095880;28;20467;-71
2023/08/19 12:13:00;;;;;;;9.65;8.65;;;34.70;46.40;;;;;;5095761;28;20031;-71
2023/08/19 12:15:28;;;;;;;10.30;9.05;;;34.80;46.10;;;;;;5096064;28;20166;-71
2023/08/19 12:17:56;;;;;;;12.93;9.43;;;34.80;45.80;;;;;;5095727;28;20024;-71
2023/08/19 12:20:25;;;;;;;10.57;9.48;;;34.70;45.60;;;;;;5095618;28;20026;-70
2023/08/19 12:22:54;;;;;;;10.48;9.38;;;34.60;45.80;;;;;;5095688;28;20032;-70
2023/08/19 12:25:20;;;;;;;9.80;8.38;;;34.60;45.90;;;;;;5094660;28;20023;-71
2023/08/19 12:27:47;;;;;;;9.20;8.27;;;34.50;46.00;;;;;;5094747;28;20043;-71
2023/08/19 12:30:18;;;;;;;10.18;8.82;;;34.50;46.10;;;;;;5094638;28;20031;-70
2023/08/19 12:32:44;;;;;;;9.45;7.97;;;34.60;46.40;;;;;;5095446;28;20039;-70
2023/08/19 12:35:10;;;;;;;9.65;8.35;;;34.70;46.50;;;;;;5095537;28;20087;-71
2023/08/19 12:37:44;;;;;;;10.15;8.10;;;34.80;46.40;;;;;;5095556;28;20032;-71
2023/08/19 12:40:10;;;;;;;9.73;8.07;;;34.90;46.20;;;;;;5096074;28;20111;-70
2023/08/19 12:47:27;;;;;;;11.00;8.95;;;34.90;46.00;;;;;;5095183;28;20016;-71
2023/08/19 12:49:55;;;;;;;11.68;8.57;;;35.00;45.90;;;;;;5095782;28;20024;-62